sensor_id;sensor_type;location;lat;lon;timestamp;P1;durP1;ratioP1;P2;durP2;ratioP2
37851;SDS011;23691;52.486;4.650;2023-08-24T05:17:22;13.80;;;4.85;;
37851;SDS011;23691;52.486;4.650;2023-08-24T05:20:45;14.80;;;4.93;;
37851;SDS011;23691;52.486;4.650;2023-08-24T05:23:36;12.13;;;5.03;;
37851;SDS011;23691;52.486;4.650;2023-08-24T05:26:26;11.15;;;4.43;;
37851;SDS011;23691;52.486;4.650;2023-08-24T05:29:21;10.25;;;4.43;;
37851;SDS011;23691;52.486;4.650;2023-08-24T05:32:14;13.15;;;5.10;;
37851;SDS011;23691;52.486;4.650;2023-08-24T05:35:08;10.52;;;4.50;;
37851;SDS011;23691;52.486;4.650;2023-08-24T05:37:58;10.35;;;4.78;;
37851;SDS011;23691;52.486;4.650;2023-08-24T05:41:00;10.60;;;4.65;;
37851;SDS011;23691;52.486;4.650;2023-08-24T05:43:51;10.40;;;4.47;;
37851;SDS011;23691;52.486;4.650;2023-08-24T05:46:56;10.82;;;4.35;;
37851;SDS011;23691;52.486;4.650;2023-08-24T05:49:52;10.95;;;4.93;;
37851;SDS011;23691;52.486;4.650;2023-08-24T05:52:43;13.60;;;4.65;;
37851;SDS011;23691;52.486;4.650;2023-08-24T05:55:37;13.07;;;5.15;;
37851;SDS011;23691;52.486;4.650;2023-08-24T05:58:31;12.00;;;4.32;;
37851;SDS011;23691;52.486;4.650;2023-08-24T06:01:22;11.50;;;4.90;;
37851;SDS011;23691;52.486;4.650;2023-08-24T06:04:19;11.35;;;4.15;;
37851;SDS011;23691;52.486;4.650;2023-08-24T06:07:18;8.85;;;4.50;;
37851;SDS011;23691;52.486;4.650;2023-08-24T06:10:09;12.95;;;4.25;;
37851;SDS011;23691;52.486;4.650;2023-08-24T06:13:00;11.20;;;4.30;;
37851;SDS011;23691;52.486;4.650;2023-08-24T06:15:52;11.15;;;4.70;;
37851;SDS011;23691;52.486;4.650;2023-08-24T06:18:45;11.00;;;4.78;;
37851;SDS011;23691;52.486;4.650;2023-08-24T06:21:36;9.68;;;4.40;;
37851;SDS011;23691;52.486;4.650;2023-08-24T06:24:26;11.13;;;4.10;;
37851;SDS011;23691;52.486;4.650;2023-08-24T06:27:17;10.57;;;4.28;;
37851;SDS011;23691;52.486;4.650;2023-08-24T06:30:08;10.45;;;4.53;;
37851;SDS011;23691;52.486;4.650;2023-08-24T06:33:02;10.73;;;3.55;;
37851;SDS011;23691;52.486;4.650;2023-08-24T06:35:54;10.80;;;4.40;;
37851;SDS011;23691;52.486;4.650;2023-08-24T06:38:45;9.50;;;3.90;;
37851;SDS011;23691;52.486;4.650;2023-08-24T06:41:39;12.82;;;4.75;;
37851;SDS011;23691;52.486;4.650;2023-08-24T06:44:30;11.05;;;3.50;;
37851;SDS011;23691;52.486;4.650;2023-08-24T06:47:20;9.73;;;4.15;;
37851;SDS011;23691;52.486;4.650;2023-08-24T06:50:11;10.13;;;3.92;;
37851;SDS011;23691;52.486;4.650;2023-08-24T06:53:02;12.18;;;4.18;;
37851;SDS011;23691;52.486;4.650;2023-08-24T06:55:55;12.20;;;4.60;;
37851;SDS011;23691;52.486;4.650;2023-08-24T06:58:47;9.43;;;3.88;;
37851;SDS011;23691;52.486;4.650;2023-08-24T07:01:38;10.57;;;4.32;;
37851;SDS011;23691;52.486;4.650;2023-08-24T07:04:29;10.32;;;3.88;;
37851;SDS011;23691;52.486;4.650;2023-08-24T07:07:20;11.57;;;4.00;;
37851;SDS011;23691;52.486;4.650;2023-08-24T07:10:11;11.75;;;4.35;;
37851;SDS011;23691;52.486;4.650;2023-08-24T07:13:06;10.68;;;3.50;;
37851;SDS011;23691;52.486;4.650;2023-08-24T07:15:58;8.90;;;4.10;;
37851;SDS011;23691;52.486;4.650;2023-08-24T07:18:53;12.68;;;3.97;;
37851;SDS011;23691;52.486;4.650;2023-08-24T07:21:44;12.15;;;3.60;;
37851;SDS011;23691;52.486;4.650;2023-08-24T07:24:35;11.75;;;3.88;;
37851;SDS011;23691;52.486;4.650;2023-08-24T07:27:26;13.40;;;4.15;;
37851;SDS011;23691;52.486;4.650;2023-08-24T07:30:19;10.05;;;3.30;;
37851;SDS011;23691;52.486;4.650;2023-08-24T07:33:10;9.02;;;3.67;;
37851;SDS011;23691;52.486;4.650;2023-08-24T07:36:01;12.18;;;3.85;;
37851;SDS011;23691;52.486;4.650;2023-08-24T07:38:53;8.13;;;3.65;;
37851;SDS011;23691;52.486;4.650;2023-08-24T07:41:47;10.25;;;3.95;;
37851;SDS011;23691;52.486;4.650;2023-08-24T07:44:43;10.23;;;3.45;;
37851;SDS011;23691;52.486;4.650;2023-08-24T07:47:36;11.82;;;3.70;;
37851;SDS011;23691;52.486;4.650;2023-08-24T07:50:27;8.73;;;3.80;;
37851;SDS011;23691;52.486;4.650;2023-08-24T07:53:18;11.90;;;3.90;;
37851;SDS011;23691;52.486;4.650;2023-08-24T07:56:09;10.25;;;3.92;;
37851;SDS011;23691;52.486;4.650;2023-08-24T07:59:00;12.95;;;3.65;;
37851;SDS011;23691;52.486;4.650;2023-08-24T08:01:52;8.55;;;3.40;;
37851;SDS011;23691;52.486;4.650;2023-08-24T08:04:43;13.88;;;3.97;;
37851;SDS011;23691;52.486;4.650;2023-08-24T08:07:34;8.57;;;3.65;;
37851;SDS011;23691;52.486;4.650;2023-08-24T08:10:25;10.25;;;3.72;;
37851;SDS011;23691;52.486;4.650;2023-08-24T08:13:16;9.10;;;3.50;;
37851;SDS011;23691;52.486;4.650;2023-08-24T08:16:07;8.95;;;3.90;;
37851;SDS011;23691;52.486;4.650;2023-08-24T08:18:58;12.05;;;4.25;;
37851;SDS011;23691;52.486;4.650;2023-08-24T08:21:49;11.57;;;4.70;;
37851;SDS011;23691;52.486;4.650;2023-08-24T08:24:40;9.48;;;4.00;;
37851;SDS011;23691;52.486;4.650;2023-08-24T08:27:29;11.02;;;4.30;;
37851;SDS011;23691;52.486;4.650;2023-08-24T08:30:20;11.38;;;3.55;;
37851;SDS011;23691;52.486;4.650;2023-08-24T08:33:11;11.48;;;4.22;;
37851;SDS011;23691;52.486;4.650;2023-08-24T08:36:02;14.73;;;4.70;;
37851;SDS011;23691;52.486;4.650;2023-08-24T08:39:06;11.95;;;4.60;;
37851;SDS011;23691;52.486;4.650;2023-08-24T08:41:58;12.68;;;4.82;;
37851;SDS011;23691;52.486;4.650;2023-08-24T08:44:49;13.13;;;4.68;;
37851;SDS011;23691;52.486;4.650;2023-08-24T08:47:43;10.70;;;4.72;;
37851;SDS011;23691;52.486;4.650;2023-08-24T08:50:34;11.63;;;4.55;;
37851;SDS011;23691;52.486;4.650;2023-08-24T08:53:25;15.98;;;5.03;;
37851;SDS011;23691;52.486;4.650;2023-08-24T08:56:18;13.77;;;4.90;;
37851;SDS011;23691;52.486;4.650;2023-08-24T08:59:09;13.07;;;5.13;;
37851;SDS011;23691;52.486;4.650;2023-08-24T09:02:04;12.60;;;5.20;;
37851;SDS011;23691;52.486;4.650;2023-08-24T09:05:00;12.65;;;5.00;;
37851;SDS011;23691;52.486;4.650;2023-08-24T09:07:52;14.27;;;5.45;;
37851;SDS011;23691;52.486;4.650;2023-08-24T09:10:45;11.57;;;4.38;;
37851;SDS011;23691;52.486;4.650;2023-08-24T09:13:36;13.50;;;5.07;;
37851;SDS011;23691;52.486;4.650;2023-08-24T09:16:29;13.13;;;5.90;;
37851;SDS011;23691;52.486;4.650;2023-08-24T09:19:20;12.38;;;5.38;;
37851;SDS011;23691;52.486;4.650;2023-08-24T09:22:19;14.65;;;5.35;;
37851;SDS011;23691;52.486;4.650;2023-08-24T09:37:02;16.00;;;5.82;;
37851;SDS011;23691;52.486;4.650;2023-08-24T12:06:26;13.43;;;4.85;;
37851;SDS011;23691;52.486;4.650;2023-08-24T12:09:37;12.35;;;4.50;;
37851;SDS011;23691;52.486;4.650;2023-08-24T12:13:34;10.57;;;4.60;;
37851;SDS011;23691;52.486;4.650;2023-08-24T12:24:46;10.73;;;3.70;;
37851;SDS011;23691;52.486;4.650;2023-08-24T12:31:58;8.20;;;3.03;;
37851;SDS011;23691;52.486;4.650;2023-08-24T12:35:21;8.73;;;3.10;;
37851;SDS011;23691;52.486;4.650;2023-08-24T12:53:51;8.45;;;2.90;;
37851;SDS011;23691;52.486;4.650;2023-08-24T13:04:37;8.05;;;2.90;;
37851;SDS011;23691;52.486;4.650;2023-08-24T13:12:07;11.25;;;3.72;;
37851;SDS011;23691;52.486;4.650;2023-08-24T13:16:03;9.90;;;3.60;;
37851;SDS011;23691;52.486;4.650;2023-08-24T13:27:42;9.70;;;4.57;;
37851;SDS011;23691;52.486;4.650;2023-08-24T13:38:14;10.77;;;4.63;;
37851;SDS011;23691;52.486;4.650;2023-08-24T13:41:14;8.38;;;3.65;;
37851;SDS011;23691;52.486;4.650;2023-08-24T13:57:04;9.43;;;3.88;;
37851;SDS011;23691;52.486;4.650;2023-08-24T14:36:52;9.63;;;3.50;;
37851;SDS011;23691;52.486;4.650;2023-08-24T14:44:03;8.93;;;3.17;;
37851;SDS011;23691;52.486;4.650;2023-08-24T14:55:37;10.10;;;4.13;;
37851;SDS011;23691;52.486;4.650;2023-08-24T14:58:44;14.02;;;5.90;;
37851;SDS011;23691;52.486;4.650;2023-08-24T15:01:35;14.77;;;5.40;;
37851;SDS011;23691;52.486;4.650;2023-08-24T15:04:26;13.15;;;6.45;;
37851;SDS011;23691;52.486;4.650;2023-08-24T15:07:18;11.57;;;5.47;;
37851;SDS011;23691;52.486;4.650;2023-08-24T15:10:11;13.90;;;5.60;;
37851;SDS011;23691;52.486;4.650;2023-08-24T15:13:02;10.00;;;5.20;;
37851;SDS011;23691;52.486;4.650;2023-08-24T15:15:53;12.88;;;6.18;;
37851;SDS011;23691;52.486;4.650;2023-08-24T15:18:45;13.05;;;7.00;;
37851;SDS011;23691;52.486;4.650;2023-08-24T15:21:39;14.32;;;6.65;;
37851;SDS011;23691;52.486;4.650;2023-08-24T15:24:32;11.55;;;6.18;;
37851;SDS011;23691;52.486;4.650;2023-08-24T15:27:24;13.75;;;7.30;;
37851;SDS011;23691;52.486;4.650;2023-08-24T15:30:15;12.15;;;6.28;;
37851;SDS011;23691;52.486;4.650;2023-08-24T15:33:06;14.45;;;7.20;;
37851;SDS011;23691;52.486;4.650;2023-08-24T15:35:57;12.43;;;6.88;;
37851;SDS011;23691;52.486;4.650;2023-08-24T15:38:50;14.10;;;7.07;;
37851;SDS011;23691;52.486;4.650;2023-08-24T15:45:24;12.15;;;6.25;;
37851;SDS011;23691;52.486;4.650;2023-08-24T15:48:15;12.07;;;5.50;;
37851;SDS011;23691;52.486;4.650;2023-08-24T15:51:06;11.07;;;5.82;;
37851;SDS011;23691;52.486;4.650;2023-08-24T15:53:59;14.00;;;6.55;;
37851;SDS011;23691;52.486;4.650;2023-08-24T15:56:51;11.50;;;5.57;;
37851;SDS011;23691;52.486;4.650;2023-08-24T15:59:45;12.95;;;5.40;;
37851;SDS011;23691;52.486;4.650;2023-08-24T16:02:41;11.73;;;5.80;;
37851;SDS011;23691;52.486;4.650;2023-08-24T16:05:35;13.15;;;5.28;;
37851;SDS011;23691;52.486;4.650;2023-08-24T16:08:29;9.63;;;5.10;;
37851;SDS011;23691;52.486;4.650;2023-08-24T16:11:20;12.82;;;6.07;;
37851;SDS011;23691;52.486;4.650;2023-08-24T16:14:14;11.07;;;5.60;;
37851;SDS011;23691;52.486;4.650;2023-08-24T16:17:07;10.95;;;5.47;;
37851;SDS011;23691;52.486;4.650;2023-08-24T16:19:58;10.85;;;4.82;;
37851;SDS011;23691;52.486;4.650;2023-08-24T16:22:56;12.68;;;4.90;;
37851;SDS011;23691;52.486;4.650;2023-08-24T16:25:47;10.05;;;4.28;;
37851;SDS011;23691;52.486;4.650;2023-08-24T16:28:40;10.77;;;4.07;;
37851;SDS011;23691;52.486;4.650;2023-08-24T16:31:34;11.27;;;4.10;;
37851;SDS011;23691;52.486;4.650;2023-08-24T16:34:25;9.13;;;3.80;;
37851;SDS011;23691;52.486;4.650;2023-08-24T16:37:15;11.55;;;4.53;;
37851;SDS011;23691;52.486;4.650;2023-08-24T16:40:06;9.88;;;4.25;;
37851;SDS011;23691;52.486;4.650;2023-08-24T16:42:57;12.90;;;4.60;;
37851;SDS011;23691;52.486;4.650;2023-08-24T16:45:48;10.00;;;4.68;;
37851;SDS011;23691;52.486;4.650;2023-08-24T16:48:39;10.38;;;4.03;;
37851;SDS011;23691;52.486;4.650;2023-08-24T16:51:30;10.05;;;4.35;;
37851;SDS011;23691;52.486;4.650;2023-08-24T16:54:23;11.52;;;4.63;;
37851;SDS011;23691;52.486;4.650;2023-08-24T16:57:14;12.65;;;5.30;;
37851;SDS011;23691;52.486;4.650;2023-08-24T17:00:05;11.65;;;5.20;;
37851;SDS011;23691;52.486;4.650;2023-08-24T17:02:57;11.43;;;5.25;;
37851;SDS011;23691;52.486;4.650;2023-08-24T17:05:47;10.88;;;5.07;;
37851;SDS011;23691;52.486;4.650;2023-08-24T17:08:40;11.52;;;5.22;;
37851;SDS011;23691;52.486;4.650;2023-08-24T17:11:30;13.18;;;5.05;;
37851;SDS011;23691;52.486;4.650;2023-08-24T17:14:21;12.15;;;5.38;;
37851;SDS011;23691;52.486;4.650;2023-08-24T17:17:11;11.13;;;5.43;;
37851;SDS011;23691;52.486;4.650;2023-08-24T17:20:02;14.25;;;5.43;;
37851;SDS011;23691;52.486;4.650;2023-08-24T17:22:55;12.82;;;5.38;;
37851;SDS011;23691;52.486;4.650;2023-08-24T17:25:46;13.90;;;5.43;;
37851;SDS011;23691;52.486;4.650;2023-08-24T17:28:37;12.55;;;5.28;;
37851;SDS011;23691;52.486;4.650;2023-08-24T17:31:28;13.20;;;5.88;;
37851;SDS011;23691;52.486;4.650;2023-08-24T17:34:18;10.98;;;5.13;;
37851;SDS011;23691;52.486;4.650;2023-08-24T17:37:09;11.40;;;5.75;;
37851;SDS011;23691;52.486;4.650;2023-08-24T17:40:01;12.00;;;5.32;;
37851;SDS011;23691;52.486;4.650;2023-08-24T17:42:55;11.77;;;5.18;;
37851;SDS011;23691;52.486;4.650;2023-08-24T17:45:46;13.80;;;5.80;;
37851;SDS011;23691;52.486;4.650;2023-08-24T17:48:43;11.55;;;5.57;;
37851;SDS011;23691;52.486;4.650;2023-08-24T17:51:34;10.02;;;5.30;;
37851;SDS011;23691;52.486;4.650;2023-08-24T17:54:25;11.45;;;5.93;;
37851;SDS011;23691;52.486;4.650;2023-08-24T17:57:28;13.57;;;6.43;;
37851;SDS011;23691;52.486;4.650;2023-08-24T18:00:27;15.07;;;6.25;;
37851;SDS011;23691;52.486;4.650;2023-08-24T18:03:18;11.27;;;5.22;;
37851;SDS011;23691;52.486;4.650;2023-08-24T18:06:12;11.60;;;5.07;;
37851;SDS011;23691;52.486;4.650;2023-08-24T18:09:02;13.63;;;5.78;;
37851;SDS011;23691;52.486;4.650;2023-08-24T18:11:58;13.25;;;5.78;;
37851;SDS011;23691;52.486;4.650;2023-08-24T18:14:48;14.45;;;6.18;;
37851;SDS011;23691;52.486;4.650;2023-08-24T18:17:46;11.40;;;6.00;;
37851;SDS011;23691;52.486;4.650;2023-08-24T18:20:37;14.93;;;6.13;;
37851;SDS011;23691;52.486;4.650;2023-08-24T18:23:29;13.63;;;6.97;;
37851;SDS011;23691;52.486;4.650;2023-08-24T18:26:34;15.32;;;6.57;;
37851;SDS011;23691;52.486;4.650;2023-08-24T18:29:25;11.98;;;6.38;;
37851;SDS011;23691;52.486;4.650;2023-08-24T18:32:32;14.68;;;6.68;;
37851;SDS011;23691;52.486;4.650;2023-08-24T18:35:23;14.05;;;6.50;;
37851;SDS011;23691;52.486;4.650;2023-08-24T18:38:23;11.13;;;5.38;;
37851;SDS011;23691;52.486;4.650;2023-08-24T18:41:24;13.15;;;5.40;;
37851;SDS011;23691;52.486;4.650;2023-08-24T18:44:19;9.50;;;4.28;;
37851;SDS011;23691;52.486;4.650;2023-08-24T18:47:13;11.60;;;4.47;;
37851;SDS011;23691;52.486;4.650;2023-08-24T18:50:24;11.95;;;4.60;;
37851;SDS011;23691;52.486;4.650;2023-08-24T18:53:31;13.07;;;4.20;;
37851;SDS011;23691;52.486;4.650;2023-08-24T18:56:56;8.82;;;3.50;;
37851;SDS011;23691;52.486;4.650;2023-08-24T19:00:02;9.80;;;3.35;;
37851;SDS011;23691;52.486;4.650;2023-08-24T19:02:59;9.55;;;3.28;;
37851;SDS011;23691;52.486;4.650;2023-08-24T19:06:04;8.82;;;3.70;;
37851;SDS011;23691;52.486;4.650;2023-08-24T19:09:19;9.07;;;3.70;;
37851;SDS011;23691;52.486;4.650;2023-08-24T19:12:10;10.02;;;3.55;;
37851;SDS011;23691;52.486;4.650;2023-08-24T19:15:01;10.35;;;3.50;;
37851;SDS011;23691;52.486;4.650;2023-08-24T19:17:53;11.82;;;4.22;;
37851;SDS011;23691;52.486;4.650;2023-08-24T19:20:49;12.70;;;4.07;;
37851;SDS011;23691;52.486;4.650;2023-08-24T19:23:39;11.02;;;4.10;;
37851;SDS011;23691;52.486;4.650;2023-08-24T19:26:31;10.18;;;4.05;;
37851;SDS011;23691;52.486;4.650;2023-08-24T19:29:22;9.68;;;3.97;;
37851;SDS011;23691;52.486;4.650;2023-08-24T19:32:16;8.60;;;3.88;;
37851;SDS011;23691;52.486;4.650;2023-08-24T19:35:15;10.15;;;4.22;;
37851;SDS011;23691;52.486;4.650;2023-08-24T19:38:11;12.82;;;4.00;;
37851;SDS011;23691;52.486;4.650;2023-08-24T19:41:05;10.35;;;3.80;;
37851;SDS011;23691;52.486;4.650;2023-08-24T19:43:59;9.77;;;3.85;;
37851;SDS011;23691;52.486;4.650;2023-08-24T19:46:49;11.45;;;3.78;;
37851;SDS011;23691;52.486;4.650;2023-08-24T19:49:39;9.75;;;3.90;;
37851;SDS011;23691;52.486;4.650;2023-08-24T20:35:41;14.20;;;5.82;;
37851;SDS011;23691;52.486;4.650;2023-08-24T21:16:15;18.58;;;8.73;;
37851;SDS011;23691;52.486;4.650;2023-08-24T21:23:30;15.40;;;8.02;;
37851;SDS011;23691;52.486;4.650;2023-08-24T21:31:16;15.43;;;8.23;;
37851;SDS011;23691;52.486;4.650;2023-08-24T21:34:36;17.40;;;8.63;;
37851;SDS011;23691;52.486;4.650;2023-08-24T21:38:25;21.88;;;9.60;;
37851;SDS011;23691;52.486;4.650;2023-08-24T21:57:20;22.40;;;12.13;;
37851;SDS011;23691;52.486;4.650;2023-08-24T22:01:05;24.77;;;13.82;;
